createdAt,value
2019-05-09T00:02:34.188Z,53.28
2019-05-09T00:05:03.820Z,53.34
2019-05-09T00:07:33.726Z,53.34
2019-05-09T00:10:04.066Z,49.80
2019-05-09T00:12:33.513Z,50.57
2019-05-09T00:15:04.447Z,50.76
2019-05-09T00:17:33.742Z,53.02
2019-05-09T00:20:08.308Z,53.43
2019-05-09T00:22:37.472Z,52.87
2019-05-09T00:25:06.229Z,52.87
2019-05-09T00:27:34.956Z,53.63
2019-05-09T00:30:04.009Z,53.41
2019-05-09T00:32:37.580Z,53.41
2019-05-09T00:35:23.373Z,50.04
2019-05-09T00:37:56.683Z,51.20
2019-05-09T00:40:25.609Z,48.69
2019-05-09T00:42:54.555Z,50.09
2019-05-09T00:45:43.893Z,50.69
2019-05-09T00:48:14.666Z,50.16
2019-05-09T00:50:43.807Z,51.64
2019-05-09T00:53:13.780Z,51.82
2019-05-09T00:55:43.628Z,53.09
2019-05-09T00:58:13.601Z,50.66
2019-05-09T01:00:43.902Z,50.70
2019-05-09T01:03:14.145Z,52.23
2019-05-09T01:05:43.680Z,56.20
2019-05-09T01:08:13.693Z,56.49
2019-05-09T01:10:43.632Z,55.35
2019-05-09T01:13:14.201Z,52.91
2019-05-09T01:15:43.990Z,51.78
2019-05-09T01:18:13.319Z,54.11
2019-05-09T01:20:44.065Z,54.11
2019-05-09T01:23:14.211Z,53.63
2019-05-09T01:25:43.593Z,56.21
2019-05-09T01:28:13.974Z,57.02
2019-05-09T01:30:43.852Z,57.76
2019-05-09T01:33:25.623Z,54.58
2019-05-09T01:35:54.364Z,52.80
2019-05-09T01:38:23.294Z,55.16
2019-05-09T01:40:53.274Z,56.78
2019-05-09T01:43:24.243Z,56.78
2019-05-09T01:45:54.078Z,53.91
2019-05-09T01:48:23.483Z,53.91
2019-05-09T01:50:53.779Z,53.87
2019-05-09T01:53:27.329Z,54.22
2019-05-09T01:55:58.973Z,54.68
2019-05-09T01:58:29.641Z,55.94
2019-05-09T02:00:58.454Z,55.58
2019-05-09T02:03:27.106Z,55.58
2019-05-09T02:05:55.871Z,53.13
2019-05-09T02:08:24.567Z,55.37
2019-05-09T02:10:54.285Z,55.37
2019-05-09T02:13:23.230Z,55.62
2019-05-09T02:16:03.500Z,55.62
2019-05-09T02:18:38.070Z,58.03
2019-05-09T02:21:06.748Z,55.89
2019-05-09T02:23:35.408Z,57.44
2019-05-09T02:26:04.294Z,57.44
2019-05-09T02:28:34.142Z,57.61
2019-05-09T02:31:05.221Z,56.95
2019-05-09T02:33:34.634Z,55.82
2019-05-09T02:36:03.693Z,54.25
2019-05-09T02:38:32.285Z,56.85
2019-05-09T02:41:00.939Z,56.85
2019-05-09T02:43:29.532Z,56.81
2019-05-09T02:46:04.767Z,54.03
2019-05-09T02:48:33.387Z,54.03
2019-05-09T02:51:02.032Z,55.19
2019-05-09T02:53:30.762Z,55.45
2019-05-09T02:55:59.423Z,55.77
2019-05-09T02:58:30.571Z,54.61
2019-05-09T03:01:39.105Z,55.09
2019-05-09T03:04:08.423Z,53.67
2019-05-09T03:06:38.895Z,54.87
2019-05-09T03:09:08.953Z,54.03
2019-05-09T03:11:38.974Z,54.51
2019-05-09T03:14:09.073Z,53.04
2019-05-09T03:16:39.794Z,52.68
2019-05-09T03:19:09.274Z,53.04
2019-05-09T03:21:49.280Z,52.06
2019-05-09T03:24:18.633Z,50.08
2019-05-09T03:26:51.858Z,50.91
2019-05-09T03:29:39.952Z,52.25
2019-05-09T03:32:09.487Z,51.04
2019-05-09T03:34:38.245Z,52.73
2019-05-09T03:37:08.442Z,52.04
2019-05-09T03:39:37.761Z,50.84
2019-05-09T03:42:07.861Z,53.08
2019-05-09T03:44:38.481Z,51.70
2019-05-09T03:47:28.110Z,52.20
2019-05-09T03:50:14.520Z,51.14
2019-05-09T03:52:43.135Z,49.38
2019-05-09T03:55:17.703Z,48.73
2019-05-09T03:57:51.283Z,49.88
2019-05-09T04:00:20.188Z,47.69
2019-05-09T04:02:48.814Z,48.31
2019-05-09T04:05:18.106Z,50.21
2019-05-09T04:07:47.913Z,50.40
2019-05-09T04:10:18.011Z,51.00
2019-05-09T04:12:55.676Z,52.14
2019-05-09T04:15:19.188Z,51.52
2019-05-09T04:17:48.050Z,52.06
2019-05-09T04:20:17.520Z,51.01
2019-05-09T04:22:48.797Z,52.64
2019-05-09T04:25:21.870Z,54.09
2019-05-09T04:27:51.868Z,51.90
2019-05-09T04:30:20.575Z,50.70
2019-05-09T04:32:49.173Z,50.46
2019-05-09T04:35:17.825Z,50.49
2019-05-09T04:37:48.213Z,51.68
2019-05-09T04:40:17.846Z,46.91
2019-05-09T04:42:47.444Z,47.36
2019-05-09T04:45:28.308Z,47.36
2019-05-09T04:47:57.771Z,47.00
2019-05-09T04:50:27.966Z,45.71
2019-05-09T04:52:57.996Z,44.75
2019-05-09T04:55:28.386Z,44.79
2019-05-09T04:57:59.916Z,44.79
2019-05-09T05:00:49.757Z,47.07
2019-05-09T05:03:18.441Z,47.07
2019-05-09T05:05:48.202Z,47.90
2019-05-09T05:08:18.159Z,49.66
2019-05-09T05:10:47.775Z,47.23
2019-05-09T05:13:26.381Z,47.23
2019-05-09T05:15:47.491Z,47.16
2019-05-09T05:18:17.362Z,45.22
2019-05-09T05:20:48.173Z,46.12
2019-05-09T05:23:24.745Z,45.72
2019-05-09T05:25:53.950Z,45.72
2019-05-09T05:28:22.682Z,44.32
2019-05-09T05:30:51.599Z,45.25
2019-05-09T05:33:38.271Z,50.67
2019-05-09T05:36:08.288Z,50.67
2019-05-09T05:38:37.686Z,48.46
2019-05-09T05:41:07.978Z,49.01
2019-05-09T05:43:41.531Z,51.33
2019-05-09T05:46:32.000Z,48.82
2019-05-09T05:49:00.648Z,47.82
2019-05-09T05:51:31.451Z,47.81
2019-05-09T05:54:01.508Z,47.40
2019-05-09T05:56:30.150Z,49.12
2019-05-09T05:58:58.838Z,47.96
2019-05-09T06:01:27.962Z,44.65
2019-05-09T06:03:58.602Z,45.14
2019-05-09T06:06:28.097Z,45.13
2019-05-09T06:08:57.953Z,43.80
2019-05-09T06:11:28.063Z,43.66
2019-05-09T06:14:04.404Z,42.87
2019-05-09T06:16:28.152Z,41.27
2019-05-09T06:18:58.540Z,42.10
2019-05-09T06:21:28.249Z,43.72
2019-05-09T06:23:58.415Z,45.25
2019-05-09T06:26:29.206Z,45.28
2019-05-09T06:28:57.871Z,46.44
2019-05-09T06:31:28.468Z,48.40
2019-05-09T06:33:57.927Z,49.24
2019-05-09T06:36:28.395Z,47.83
2019-05-09T06:38:58.768Z,47.26
2019-05-09T06:41:28.522Z,44.68
2019-05-09T06:44:14.228Z,46.67
2019-05-09T06:46:39.281Z,44.50
2019-05-09T06:49:26.759Z,44.22
2019-05-09T06:51:42.409Z,43.72
2019-05-09T06:54:11.110Z,42.87
2019-05-09T06:56:40.086Z,45.08
2019-05-09T06:59:08.828Z,42.81
2019-05-09T07:01:42.759Z,45.57
2019-05-09T07:04:18.373Z,44.19
2019-05-09T07:06:50.800Z,43.64
2019-05-09T07:09:23.387Z,40.54
2019-05-09T07:11:52.222Z,37.11
2019-05-09T07:14:33.869Z,38.30
2019-05-09T07:17:01.513Z,36.91
2019-05-09T07:19:30.274Z,34.83
2019-05-09T07:22:08.874Z,35.47
2019-05-09T07:25:14.231Z,36.17
2019-05-09T07:27:43.221Z,35.62
2019-05-09T07:30:34.199Z,36.69
2019-05-09T07:33:11.933Z,37.26
2019-05-09T07:35:40.741Z,39.32
2019-05-09T07:38:09.612Z,38.97
2019-05-09T07:40:38.775Z,38.11
2019-05-09T07:43:07.802Z,38.54
2019-05-09T07:45:38.434Z,36.18
2019-05-09T07:48:07.641Z,35.85
2019-05-09T07:50:38.964Z,33.76
2019-05-09T07:53:08.778Z,34.45
2019-05-09T07:55:37.880Z,36.39
2019-05-09T07:58:08.045Z,35.77
2019-05-09T08:00:38.415Z,36.35
2019-05-09T08:03:10.317Z,37.99
2019-05-09T08:05:38.605Z,36.06
2019-05-09T08:08:10.589Z,38.34
2019-05-09T08:10:39.206Z,39.85
2019-05-09T08:13:11.542Z,37.63
2019-05-09T08:15:38.551Z,36.99
2019-05-09T08:18:08.490Z,37.13
2019-05-09T08:20:40.656Z,34.64
2019-05-09T08:23:08.950Z,33.14
2019-05-09T08:25:38.364Z,30.26
2019-05-09T08:28:09.029Z,29.70
2019-05-09T08:30:40.337Z,33.34
2019-05-09T08:33:08.480Z,37.07
2019-05-09T08:35:38.353Z,38.26
2019-05-09T08:38:08.572Z,37.65
2019-05-09T08:40:38.384Z,37.24
2019-05-09T08:43:07.697Z,38.81
2019-05-09T08:45:38.293Z,39.08
2019-05-09T08:48:09.202Z,38.54
2019-05-09T08:50:43.961Z,38.78
2019-05-09T08:53:12.655Z,39.07
2019-05-09T08:55:41.373Z,35.97
2019-05-09T08:58:10.007Z,33.95
2019-05-09T09:00:39.238Z,35.53
2019-05-09T09:03:08.290Z,37.52
2019-05-09T09:05:38.180Z,39.04
2019-05-09T09:08:08.391Z,39.55
2019-05-09T09:10:38.575Z,39.57
2019-05-09T09:13:08.871Z,39.98
2019-05-09T09:15:57.995Z,41.31
2019-05-09T09:18:09.003Z,41.64
2019-05-09T09:20:38.104Z,44.48
2019-05-09T09:23:08.885Z,44.35
2019-05-09T09:25:39.124Z,40.30
2019-05-09T09:28:08.918Z,38.67
2019-05-09T09:30:38.853Z,39.32
2019-05-09T09:33:13.547Z,37.63
2019-05-09T09:35:39.462Z,38.97
2019-05-09T09:38:09.313Z,42.32
2019-05-09T09:40:38.731Z,42.07
2019-05-09T09:43:09.299Z,45.17
2019-05-09T09:45:38.195Z,43.09
2019-05-09T09:48:09.012Z,38.58
2019-05-09T09:50:38.318Z,33.75
2019-05-09T09:53:08.703Z,29.52
2019-05-09T09:55:38.635Z,29.65
2019-05-09T09:58:08.273Z,29.72
2019-05-09T10:00:54.516Z,28.45
2019-05-09T10:03:23.872Z,28.77
2019-05-09T10:05:52.549Z,31.65
2019-05-09T10:08:21.329Z,33.33
2019-05-09T10:10:50.282Z,34.05
2019-05-09T10:13:18.954Z,36.13
2019-05-09T10:16:24.553Z,35.15
2019-05-09T10:18:48.588Z,37.58
2019-05-09T10:21:20.788Z,37.33
2019-05-09T10:23:49.430Z,38.90
2019-05-09T10:26:18.125Z,36.90
2019-05-09T10:28:48.577Z,39.92
2019-05-09T10:31:17.536Z,39.33
2019-05-09T10:33:48.167Z,42.25
2019-05-09T10:36:16.678Z,41.84
2019-05-09T10:38:47.633Z,42.27
2019-05-09T10:41:15.884Z,41.50
2019-05-09T10:43:57.874Z,42.34
2019-05-09T10:46:52.179Z,41.97
2019-05-09T10:49:08.408Z,45.52
2019-05-09T10:51:36.449Z,42.58
2019-05-09T10:54:07.845Z,39.58
2019-05-09T10:56:38.184Z,39.62
2019-05-09T10:59:07.824Z,38.90
2019-05-09T11:01:38.121Z,37.19
2019-05-09T11:04:08.263Z,38.61
2019-05-09T11:06:38.262Z,39.32
2019-05-09T11:09:08.744Z,40.85
2019-05-09T11:11:37.512Z,39.50
2019-05-09T11:14:08.331Z,41.74
2019-05-09T11:16:44.843Z,40.21
2019-05-09T11:19:08.155Z,41.21
2019-05-09T11:21:39.091Z,40.42
2019-05-09T11:24:08.386Z,38.93
2019-05-09T11:26:39.871Z,42.58
2019-05-09T11:29:08.217Z,42.99
2019-05-09T11:31:38.503Z,44.93
2019-05-09T11:34:08.932Z,46.69
2019-05-09T11:36:38.089Z,46.53
2019-05-09T11:39:10.843Z,45.51
2019-05-09T11:41:38.509Z,46.10
2019-05-09T11:44:08.583Z,45.22
2019-05-09T11:46:38.184Z,46.36
2019-05-09T11:49:08.258Z,45.89
2019-05-09T11:51:37.267Z,47.11
2019-05-09T11:54:08.822Z,46.28
2019-05-09T11:56:38.423Z,46.19
2019-05-09T11:59:07.894Z,44.65
2019-05-09T12:01:39.425Z,46.89
2019-05-09T12:04:08.088Z,47.19
2019-05-09T12:06:38.370Z,45.47
2019-05-09T12:09:08.709Z,47.36
2019-05-09T12:11:40.099Z,45.46
2019-05-09T12:14:08.922Z,47.25
2019-05-09T12:16:38.188Z,46.66
2019-05-09T12:19:06.919Z,46.12
2019-05-09T12:21:42.483Z,45.35
2019-05-09T12:24:05.983Z,44.57
2019-05-09T12:26:34.624Z,43.90
2019-05-09T12:29:03.237Z,42.34
2019-05-09T12:31:31.901Z,41.71
2019-05-09T12:34:00.590Z,45.24
2019-05-09T12:36:29.278Z,43.96
2019-05-09T12:38:59.129Z,45.21
2019-05-09T12:41:31.716Z,42.87
2019-05-09T12:43:58.457Z,43.53
2019-05-09T12:46:28.423Z,43.83
2019-05-09T12:48:59.175Z,45.14
2019-05-09T12:51:29.351Z,44.46
2019-05-09T12:53:58.378Z,43.49
2019-05-09T12:56:28.498Z,42.54
2019-05-09T12:58:58.184Z,43.00
2019-05-09T13:01:26.930Z,42.14
2019-05-09T13:03:58.073Z,41.84
2019-05-09T13:06:28.929Z,42.91
2019-05-09T13:08:58.317Z,43.79
2019-05-09T13:11:27.960Z,44.52
2019-05-09T13:13:58.874Z,45.34
2019-05-09T13:16:53.548Z,44.06
2019-05-09T13:19:20.722Z,44.19
2019-05-09T13:21:49.407Z,43.37
2019-05-09T13:24:19.532Z,43.43
2019-05-09T13:26:50.327Z,43.39
2019-05-09T13:29:19.284Z,43.82
2019-05-09T13:31:48.449Z,46.03
2019-05-09T13:34:18.835Z,45.70
2019-05-09T13:36:48.946Z,43.29
2019-05-09T13:39:18.104Z,43.21
2019-05-09T13:41:47.588Z,40.78
2019-05-09T13:44:18.182Z,40.83
2019-05-09T13:46:48.905Z,40.91
2019-05-09T13:49:19.340Z,42.16
2019-05-09T13:51:57.443Z,42.40
2019-05-09T13:54:18.927Z,40.53
2019-05-09T13:56:53.321Z,40.17
2019-05-09T13:59:18.751Z,39.87
2019-05-09T14:01:48.555Z,40.16
2019-05-09T14:04:17.175Z,40.51
2019-05-09T14:06:45.781Z,42.21
2019-05-09T14:09:14.721Z,42.80
2019-05-09T14:11:43.578Z,42.17
2019-05-09T14:14:12.335Z,44.12
2019-05-09T14:16:41.173Z,41.92
2019-05-09T14:19:30.147Z,45.63
2019-05-09T14:21:41.742Z,44.29
2019-05-09T14:24:15.396Z,44.12
2019-05-09T14:26:40.957Z,46.60
2019-05-09T14:29:12.635Z,43.80
2019-05-09T14:31:40.483Z,44.90
2019-05-09T14:34:09.600Z,43.36
2019-05-09T14:36:44.455Z,46.82
2019-05-09T14:39:09.625Z,46.96
2019-05-09T14:41:39.042Z,45.21
2019-05-09T14:44:11.303Z,44.03
2019-05-09T14:46:40.513Z,46.24
2019-05-09T14:49:09.278Z,44.06
2019-05-09T14:51:38.343Z,44.01
2019-05-09T14:54:08.314Z,46.90
2019-05-09T14:56:41.939Z,45.03
2019-05-09T14:59:09.795Z,44.37
2019-05-09T15:01:38.670Z,43.56
2019-05-09T15:04:09.111Z,43.42
2019-05-09T15:06:37.824Z,43.84
2019-05-09T15:09:08.393Z,43.71
2019-05-09T15:11:39.504Z,43.49
2019-05-09T15:14:08.310Z,44.29
2019-05-09T15:16:39.204Z,46.59
2019-05-09T15:19:08.655Z,45.23
2019-05-09T15:21:38.431Z,44.93
2019-05-09T15:24:09.321Z,46.68
2019-05-09T15:26:37.716Z,43.57
2019-05-09T15:29:08.098Z,43.14
2019-05-09T15:31:39.232Z,41.27
2019-05-09T15:34:09.928Z,40.65
2019-05-09T15:36:38.071Z,40.95
2019-05-09T15:39:08.127Z,42.46
2019-05-09T15:41:38.437Z,40.46
2019-05-09T15:44:08.411Z,40.76
2019-05-09T15:46:47.814Z,41.40
2019-05-09T15:49:18.318Z,44.00
2019-05-09T15:51:47.907Z,41.75
2019-05-09T15:54:17.874Z,42.60
2019-05-09T15:56:48.352Z,41.01
2019-05-09T15:59:18.159Z,42.67
2019-05-09T16:01:49.153Z,39.85
2019-05-09T16:04:18.082Z,40.23
2019-05-09T16:06:50.407Z,41.13
2019-05-09T16:09:18.133Z,40.16
2019-05-09T16:11:48.368Z,41.72
2019-05-09T16:14:18.426Z,43.16
2019-05-09T16:16:47.935Z,43.78
2019-05-09T16:19:16.680Z,42.64
2019-05-09T16:21:47.781Z,41.70
2019-05-09T16:24:18.654Z,42.53
2019-05-09T16:26:48.774Z,42.02
2019-05-09T16:29:17.859Z,44.15
2019-05-09T16:31:48.046Z,42.75
2019-05-09T16:34:17.761Z,42.88
2019-05-09T16:36:48.005Z,44.04
2019-05-09T16:39:17.951Z,44.83
2019-05-09T16:41:48.415Z,44.96
2019-05-09T16:44:18.501Z,45.05
2019-05-09T16:46:48.620Z,43.78
2019-05-09T16:49:19.902Z,45.28
2019-05-09T16:51:48.581Z,44.42
2019-05-09T16:54:18.157Z,44.03
2019-05-09T16:56:47.401Z,45.52
2019-05-09T16:59:17.831Z,45.47
2019-05-09T17:01:50.050Z,43.15
2019-05-09T17:04:19.078Z,44.07
2019-05-09T17:06:49.682Z,43.65
2019-05-09T17:09:18.554Z,44.66
2019-05-09T17:11:48.026Z,45.00
2019-05-09T17:14:19.327Z,43.43
2019-05-09T17:16:48.263Z,43.25
2019-05-09T17:19:19.411Z,43.10
2019-05-09T17:22:09.504Z,43.76
2019-05-09T17:24:40.216Z,44.71
2019-05-09T17:27:08.945Z,41.59
2019-05-09T17:29:38.342Z,43.26
2019-05-09T17:32:07.878Z,42.10
2019-05-09T17:34:38.138Z,41.53
2019-05-09T17:37:08.020Z,42.64
2019-05-09T17:39:38.707Z,42.14
2019-05-09T17:42:07.749Z,43.52
2019-05-09T17:44:36.785Z,44.52
2019-05-09T17:47:08.151Z,44.39
2019-05-09T17:49:37.487Z,43.64
2019-05-09T17:52:07.617Z,42.83
2019-05-09T17:54:37.935Z,44.22
2019-05-09T17:57:07.976Z,43.87
2019-05-09T17:59:39.104Z,43.33
2019-05-09T18:02:08.741Z,42.43
2019-05-09T18:04:37.980Z,41.45
2019-05-09T18:07:08.793Z,42.27
2019-05-09T18:09:37.296Z,42.65
2019-05-09T18:12:08.107Z,43.13
2019-05-09T18:14:38.272Z,44.20
2019-05-09T18:17:06.742Z,44.29
2019-05-09T18:19:37.935Z,43.76
2019-05-09T18:22:08.148Z,44.51
2019-05-09T18:24:37.679Z,43.13
2019-05-09T18:27:07.657Z,43.55
2019-05-09T18:29:38.049Z,43.58
2019-05-09T18:32:35.020Z,43.82
2019-05-09T18:35:23.093Z,45.04
2019-05-09T18:37:51.910Z,44.84
2019-05-09T18:40:20.753Z,46.09
2019-05-09T18:42:49.731Z,45.75
2019-05-09T18:45:18.836Z,46.14
2019-05-09T18:47:48.303Z,44.79
2019-05-09T18:50:17.487Z,43.97
2019-05-09T18:52:46.471Z,45.42
2019-05-09T18:55:16.616Z,45.36
2019-05-09T18:57:45.656Z,46.29
2019-05-09T19:00:15.125Z,46.25
2019-05-09T19:02:44.268Z,47.11
2019-05-09T19:05:14.845Z,46.34
2019-05-09T19:07:43.518Z,46.65
2019-05-09T19:10:14.104Z,46.66
2019-05-09T19:12:42.862Z,46.27
2019-05-09T19:15:17.861Z,47.14
2019-05-09T19:18:04.319Z,46.76
2019-05-09T19:20:47.025Z,47.43
2019-05-09T19:23:15.663Z,47.14
2019-05-09T19:25:44.322Z,47.09
2019-05-09T19:28:13.008Z,47.10
2019-05-09T19:30:41.800Z,46.83
2019-05-09T19:33:10.489Z,47.75
2019-05-09T19:35:39.237Z,46.90
2019-05-09T19:38:07.906Z,48.10
2019-05-09T19:40:36.840Z,50.53
2019-05-09T19:43:05.846Z,49.41
2019-05-09T19:45:34.540Z,51.03
2019-05-09T19:48:03.141Z,50.88
2019-05-09T19:50:31.815Z,49.40
2019-05-09T19:53:00.425Z,47.97
2019-05-09T19:55:29.098Z,47.84
2019-05-09T19:57:57.761Z,46.43
2019-05-09T20:00:26.443Z,48.00
2019-05-09T20:02:55.445Z,49.96
2019-05-09T20:05:24.117Z,49.05
2019-05-09T20:07:52.836Z,48.17
2019-05-09T20:10:39.285Z,47.60
2019-05-09T20:13:18.946Z,47.74
2019-05-09T20:15:47.836Z,46.47
2019-05-09T20:18:16.437Z,47.56
2019-05-09T20:20:45.346Z,46.47
2019-05-09T20:23:13.997Z,46.06
2019-05-09T20:25:42.708Z,48.56
2019-05-09T20:28:11.328Z,48.95
2019-05-09T20:30:39.967Z,48.22
2019-05-09T20:33:08.665Z,49.45
2019-05-09T20:35:37.292Z,49.97
2019-05-09T20:38:06.395Z,50.88
2019-05-09T20:40:35.235Z,50.04
2019-05-09T20:43:04.205Z,49.85
2019-05-09T20:45:33.349Z,47.75
2019-05-09T20:48:02.268Z,49.87
2019-05-09T20:50:31.173Z,50.87
2019-05-09T20:53:09.148Z,48.88
2019-05-09T20:55:30.775Z,50.43
2019-05-09T20:57:59.634Z,47.70
2019-05-09T21:00:28.710Z,47.82
2019-05-09T21:02:57.640Z,48.17
2019-05-09T21:05:26.574Z,47.66
2019-05-09T21:07:55.668Z,47.31
2019-05-09T21:10:24.640Z,46.88
2019-05-09T21:12:53.619Z,46.95
2019-05-09T21:15:22.614Z,46.92
2019-05-09T21:17:51.407Z,46.49
2019-05-09T21:20:20.403Z,47.04
2019-05-09T21:22:49.515Z,46.74
2019-05-09T21:25:18.587Z,46.66
2019-05-09T21:27:47.543Z,46.58
2019-05-09T21:30:17.003Z,46.65
2019-05-09T21:32:45.943Z,49.30
2019-05-09T21:35:14.874Z,51.89
2019-05-09T21:37:43.952Z,54.93
2019-05-09T21:40:13.110Z,53.91
2019-05-09T21:42:41.774Z,53.70
2019-05-09T21:45:11.708Z,55.95
2019-05-09T21:47:40.328Z,54.12
2019-05-09T21:50:09.115Z,57.71
2019-05-09T21:52:37.830Z,57.53
2019-05-09T21:55:06.530Z,57.19
2019-05-09T21:57:35.182Z,58.96
2019-05-09T22:00:04.197Z,57.81
2019-05-09T22:02:32.829Z,57.67
2019-05-09T22:05:02.124Z,57.36
2019-05-09T22:07:30.764Z,55.98
2019-05-09T22:10:00.172Z,55.28
2019-05-09T22:12:29.079Z,56.33
2019-05-09T22:14:57.931Z,55.32
2019-05-09T22:17:38.137Z,53.61
2019-05-09T22:20:07.942Z,51.05
2019-05-09T22:22:37.071Z,52.21
2019-05-09T22:25:07.040Z,51.37
2019-05-09T22:27:35.696Z,50.75
2019-05-09T22:30:05.840Z,52.72
2019-05-09T22:32:34.517Z,50.77
2019-05-09T22:35:03.131Z,50.09
2019-05-09T22:37:32.209Z,51.09
2019-05-09T22:40:00.871Z,50.00
2019-05-09T22:42:29.549Z,53.48
2019-05-09T22:44:58.391Z,54.11
2019-05-09T22:47:27.102Z,53.53
2019-05-09T22:49:55.727Z,56.10
2019-05-09T22:52:24.368Z,53.69
2019-05-09T22:54:52.999Z,54.61
2019-05-09T22:57:21.663Z,56.34
2019-05-09T22:59:50.508Z,55.53
2019-05-09T23:02:19.588Z,58.97
2019-05-09T23:04:48.415Z,56.48
2019-05-09T23:07:17.156Z,56.79
2019-05-09T23:09:45.747Z,57.08
2019-05-09T23:12:14.867Z,57.28
2019-05-09T23:14:43.532Z,54.65
2019-05-09T23:17:12.144Z,54.72
2019-05-09T23:19:40.727Z,56.72
2019-05-09T23:22:09.916Z,57.63
2019-05-09T23:24:38.906Z,53.33
2019-05-09T23:27:09.204Z,52.54
2019-05-09T23:29:38.169Z,53.38
2019-05-09T23:32:15.807Z,55.43
2019-05-09T23:34:44.670Z,52.99
2019-05-09T23:37:13.356Z,52.97
2019-05-09T23:39:44.035Z,53.53
2019-05-09T23:42:12.766Z,55.77
2019-05-09T23:44:41.938Z,56.56
2019-05-09T23:47:10.592Z,54.53
2019-05-09T23:49:39.261Z,53.07
2019-05-09T23:52:07.949Z,55.99
2019-05-09T23:54:54.329Z,55.89
2019-05-09T23:57:40.939Z,57.74
